sensor_id;sensor_type;location;lat;lon;timestamp;pressure;altitude;pressure_sealevel;temperature;humidity
29169;BME280;16219;42.864;23.360;2022-10-31T00:00:17;96348.75;;;8.98;100.00
29169;BME280;16219;42.864;23.360;2022-10-31T00:02:44;96346.91;;;8.98;100.00
29169;BME280;16219;42.864;23.360;2022-10-31T00:05:11;96361.19;;;9.11;100.00
29169;BME280;16219;42.864;23.360;2022-10-31T00:07:39;96360.31;;;9.16;100.00
29169;BME280;16219;42.864;23.360;2022-10-31T00:10:08;96354.06;;;9.12;100.00
29169;BME280;16219;42.864;23.360;2022-10-31T00:12:35;96346.94;;;9.12;100.00
29169;BME280;16219;42.864;23.360;2022-10-31T00:15:02;96355.84;;;9.16;100.00
29169;BME280;16219;42.864;23.360;2022-10-31T00:17:31;96354.00;;;9.17;100.00
29169;BME280;16219;42.864;23.360;2022-10-31T00:20:01;96350.31;;;9.18;100.00
29169;BME280;16219;42.864;23.360;2022-10-31T00:22:28;96353.72;;;9.18;100.00
29169;BME280;16219;42.864;23.360;2022-10-31T00:24:55;96351.34;;;9.17;100.00
29169;BME280;16219;42.864;23.360;2022-10-31T00:27:22;96353.41;;;9.20;100.00
29169;BME280;16219;42.864;23.360;2022-10-31T00:29:49;96349.66;;;9.26;100.00
29169;BME280;16219;42.864;23.360;2022-10-31T00:32:16;96352.00;;;9.27;100.00
29169;BME280;16219;42.864;23.360;2022-10-31T00:34:45;96347.50;;;9.28;100.00
29169;BME280;16219;42.864;23.360;2022-10-31T00:37:12;96344.88;;;9.28;100.00
29169;BME280;16219;42.864;23.360;2022-10-31T00:39:41;96346.06;;;9.36;100.00
29169;BME280;16219;42.864;23.360;2022-10-31T00:42:12;96336.41;;;9.31;100.00
29169;BME280;16219;42.864;23.360;2022-10-31T00:44:42;96334.34;;;9.28;100.00
29169;BME280;16219;42.864;23.360;2022-10-31T00:47:09;96339.31;;;9.30;100.00
29169;BME280;16219;42.864;23.360;2022-10-31T00:49:37;96336.63;;;9.16;100.00
29169;BME280;16219;42.864;23.360;2022-10-31T00:52:06;96347.09;;;9.21;100.00
29169;BME280;16219;42.864;23.360;2022-10-31T00:54:33;96329.16;;;9.23;100.00
29169;BME280;16219;42.864;23.360;2022-10-31T00:57:00;96341.25;;;9.24;100.00
29169;BME280;16219;42.864;23.360;2022-10-31T00:59:28;96342.75;;;9.11;100.00
29169;BME280;16219;42.864;23.360;2022-10-31T01:01:55;96339.78;;;9.18;100.00
29169;BME280;16219;42.864;23.360;2022-10-31T01:04:22;96347.84;;;9.21;100.00
29169;BME280;16219;42.864;23.360;2022-10-31T01:06:49;96343.97;;;9.19;100.00
29169;BME280;16219;42.864;23.360;2022-10-31T01:09:18;96344.97;;;9.23;100.00
29169;BME280;16219;42.864;23.360;2022-10-31T01:11:45;96353.06;;;9.26;100.00
29169;BME280;16219;42.864;23.360;2022-10-31T01:14:12;96348.06;;;9.25;100.00
29169;BME280;16219;42.864;23.360;2022-10-31T01:16:39;96350.78;;;9.20;100.00
29169;BME280;16219;42.864;23.360;2022-10-31T01:19:06;96356.28;;;9.23;100.00
29169;BME280;16219;42.864;23.360;2022-10-31T01:21:33;96360.25;;;9.21;100.00
29169;BME280;16219;42.864;23.360;2022-10-31T01:24:00;96354.31;;;9.29;100.00
29169;BME280;16219;42.864;23.360;2022-10-31T01:26:31;96351.44;;;9.31;100.00
29169;BME280;16219;42.864;23.360;2022-10-31T01:29:01;96348.06;;;9.25;100.00
29169;BME280;16219;42.864;23.360;2022-10-31T01:31:30;96353.97;;;9.36;100.00
29169;BME280;16219;42.864;23.360;2022-10-31T01:33:58;96348.31;;;9.42;100.00
29169;BME280;16219;42.864;23.360;2022-10-31T01:36:27;96344.56;;;9.48;100.00
29169;BME280;16219;42.864;23.360;2022-10-31T01:38:56;96339.84;;;9.45;100.00
29169;BME280;16219;42.864;23.360;2022-10-31T01:41:26;96345.31;;;9.49;100.00
29169;BME280;16219;42.864;23.360;2022-10-31T01:43:56;96348.66;;;9.55;100.00
29169;BME280;16219;42.864;23.360;2022-10-31T01:46:26;96348.84;;;9.58;100.00
29169;BME280;16219;42.864;23.360;2022-10-31T01:48:55;96355.63;;;9.64;100.00
29169;BME280;16219;42.864;23.360;2022-10-31T01:51:25;96350.50;;;9.54;100.00
29169;BME280;16219;42.864;23.360;2022-10-31T01:53:57;96345.66;;;9.61;100.00
29169;BME280;16219;42.864;23.360;2022-10-31T01:56:25;96340.97;;;9.72;100.00
29169;BME280;16219;42.864;23.360;2022-10-31T01:58:54;96347.72;;;9.78;100.00
29169;BME280;16219;42.864;23.360;2022-10-31T02:01:23;96344.09;;;9.74;100.00
29169;BME280;16219;42.864;23.360;2022-10-31T02:03:53;96351.72;;;9.75;100.00
29169;BME280;16219;42.864;23.360;2022-10-31T02:06:29;96348.56;;;9.60;100.00
29169;BME280;16219;42.864;23.360;2022-10-31T02:09:00;96350.34;;;9.64;100.00
29169;BME280;16219;42.864;23.360;2022-10-31T02:11:29;96350.53;;;9.68;100.00
29169;BME280;16219;42.864;23.360;2022-10-31T02:13:58;96344.94;;;9.56;100.00
29169;BME280;16219;42.864;23.360;2022-10-31T02:16:26;96355.78;;;9.68;100.00
29169;BME280;16219;42.864;23.360;2022-10-31T02:18:54;96356.97;;;9.75;100.00
29169;BME280;16219;42.864;23.360;2022-10-31T02:21:27;96356.97;;;9.75;100.00
29169;BME280;16219;42.864;23.360;2022-10-31T02:24:17;96355.84;;;9.82;100.00
29169;BME280;16219;42.864;23.360;2022-10-31T02:27:02;96358.16;;;9.83;100.00
29169;BME280;16219;42.864;23.360;2022-10-31T02:30:07;96357.41;;;9.83;100.00
29169;BME280;16219;42.864;23.360;2022-10-31T02:32:46;96358.47;;;9.82;100.00
29169;BME280;16219;42.864;23.360;2022-10-31T02:35:24;96360.50;;;9.85;100.00
29169;BME280;16219;42.864;23.360;2022-10-31T02:38:01;96358.16;;;9.83;100.00
29169;BME280;16219;42.864;23.360;2022-10-31T02:40:33;96362.66;;;9.83;100.00
29169;BME280;16219;42.864;23.360;2022-10-31T02:43:26;96370.06;;;9.81;100.00
29169;BME280;16219;42.864;23.360;2022-10-31T02:45:58;96370.47;;;9.74;100.00
29169;BME280;16219;42.864;23.360;2022-10-31T02:48:33;96379.13;;;9.74;100.00
29169;BME280;16219;42.864;23.360;2022-10-31T02:51:04;96374.16;;;9.73;100.00
29169;BME280;16219;42.864;23.360;2022-10-31T02:53:32;96366.44;;;9.63;100.00
29169;BME280;16219;42.864;23.360;2022-10-31T02:56:02;96377.75;;;9.63;100.00
29169;BME280;16219;42.864;23.360;2022-10-31T02:58:34;96389.56;;;9.66;100.00
29169;BME280;16219;42.864;23.360;2022-10-31T03:01:42;96389.16;;;9.59;100.00
29169;BME280;16219;42.864;23.360;2022-10-31T03:04:28;96393.03;;;9.47;100.00
29169;BME280;16219;42.864;23.360;2022-10-31T03:07:03;96391.44;;;9.46;100.00
29169;BME280;16219;42.864;23.360;2022-10-31T03:09:33;96385.19;;;9.42;100.00
29169;BME280;16219;42.864;23.360;2022-10-31T03:12:09;96385.69;;;9.44;100.00
29169;BME280;16219;42.864;23.360;2022-10-31T03:14:41;96402.56;;;9.43;100.00
29169;BME280;16219;42.864;23.360;2022-10-31T03:17:14;96391.06;;;9.39;100.00
29169;BME280;16219;42.864;23.360;2022-10-31T03:19:49;96389.72;;;9.23;100.00
29169;BME280;16219;42.864;23.360;2022-10-31T03:22:21;96392.63;;;9.21;100.00
29169;BME280;16219;42.864;23.360;2022-10-31T03:24:50;96397.69;;;9.18;100.00
29169;BME280;16219;42.864;23.360;2022-10-31T03:27:24;96404.09;;;9.12;100.00
29169;BME280;16219;42.864;23.360;2022-10-31T03:29:55;96401.00;;;9.05;100.00
29169;BME280;16219;42.864;23.360;2022-10-31T03:32:27;96406.44;;;8.94;100.00
29169;BME280;16219;42.864;23.360;2022-10-31T03:34:59;96402.94;;;8.80;100.00
29169;BME280;16219;42.864;23.360;2022-10-31T03:37:31;96397.91;;;8.84;100.00
29169;BME280;16219;42.864;23.360;2022-10-31T03:40:01;96398.59;;;8.89;100.00
29169;BME280;16219;42.864;23.360;2022-10-31T03:42:34;96400.72;;;8.87;100.00
29169;BME280;16219;42.864;23.360;2022-10-31T03:45:07;96406.50;;;8.89;100.00
29169;BME280;16219;42.864;23.360;2022-10-31T03:47:36;96400.72;;;8.87;100.00
29169;BME280;16219;42.864;23.360;2022-10-31T03:50:07;96406.00;;;8.87;100.00
29169;BME280;16219;42.864;23.360;2022-10-31T03:52:37;96408.91;;;8.86;100.00
29169;BME280;16219;42.864;23.360;2022-10-31T03:55:12;96417.31;;;8.88;100.00
29169;BME280;16219;42.864;23.360;2022-10-31T03:57:47;96414.41;;;8.89;100.00
29169;BME280;16219;42.864;23.360;2022-10-31T04:00:16;96416.50;;;8.87;100.00
29169;BME280;16219;42.864;23.360;2022-10-31T04:02:47;96411.25;;;8.87;100.00
29169;BME280;16219;42.864;23.360;2022-10-31T04:05:18;96419.72;;;8.84;100.00
29169;BME280;16219;42.864;23.360;2022-10-31T04:07:51;96411.25;;;8.87;100.00
29169;BME280;16219;42.864;23.360;2022-10-31T04:10:21;96416.47;;;8.92;100.00
29169;BME280;16219;42.864;23.360;2022-10-31T04:12:53;96420.66;;;8.93;100.00
29169;BME280;16219;42.864;23.360;2022-10-31T04:15:31;96419.09;;;8.92;100.00
29169;BME280;16219;42.864;23.360;2022-10-31T04:17:59;96427.47;;;8.94;100.00
29169;BME280;16219;42.864;23.360;2022-10-31T04:20:33;96429.81;;;8.96;100.00
29169;BME280;16219;42.864;23.360;2022-10-31T04:23:01;96430.03;;;8.99;100.00
29169;BME280;16219;42.864;23.360;2022-10-31T04:25:30;96431.19;;;8.93;100.00
29169;BME280;16219;42.864;23.360;2022-10-31T04:27:58;96431.66;;;8.76;100.00
29169;BME280;16219;42.864;23.360;2022-10-31T04:30:25;96429.19;;;8.85;100.00
29169;BME280;16219;42.864;23.360;2022-10-31T04:32:53;96428.56;;;8.93;100.00
29169;BME280;16219;42.864;23.360;2022-10-31T04:35:22;96424.38;;;8.92;100.00
29169;BME280;16219;42.864;23.360;2022-10-31T04:37:50;96424.06;;;8.94;100.00
29169;BME280;16219;42.864;23.360;2022-10-31T04:40:18;96432.03;;;8.89;100.00
29169;BME280;16219;42.864;23.360;2022-10-31T04:43:04;96435.75;;;8.88;100.00
29169;BME280;16219;42.864;23.360;2022-10-31T04:45:31;96430.19;;;8.89;100.00
29169;BME280;16219;42.864;23.360;2022-10-31T04:48:01;96427.97;;;8.77;100.00
29169;BME280;16219;42.864;23.360;2022-10-31T04:50:31;96444.97;;;8.85;100.00
29169;BME280;16219;42.864;23.360;2022-10-31T04:52:59;96445.19;;;8.89;100.00
29169;BME280;16219;42.864;23.360;2022-10-31T04:55:30;96444.41;;;8.88;100.00
29169;BME280;16219;42.864;23.360;2022-10-31T04:58:16;96451.78;;;8.86;100.00
29169;BME280;16219;42.864;23.360;2022-10-31T05:00:43;96457.59;;;8.83;100.00
29169;BME280;16219;42.864;23.360;2022-10-31T05:03:11;96458.47;;;8.79;100.00
29169;BME280;16219;42.864;23.360;2022-10-31T05:05:38;96453.19;;;8.79;100.00
29169;BME280;16219;42.864;23.360;2022-10-31T05:08:07;96461.09;;;8.79;100.00
29169;BME280;16219;42.864;23.360;2022-10-31T05:10:36;96467.41;;;8.77;100.00
29169;BME280;16219;42.864;23.360;2022-10-31T05:13:04;96469.03;;;8.73;100.00
29169;BME280;16219;42.864;23.360;2022-10-31T05:15:49;96469.66;;;8.65;100.00
29169;BME280;16219;42.864;23.360;2022-10-31T05:18:16;96466.03;;;8.61;100.00
29169;BME280;16219;42.864;23.360;2022-10-31T05:21:02;96470.84;;;8.54;100.00
29169;BME280;16219;42.864;23.360;2022-10-31T05:23:41;96477.38;;;8.57;100.00
29169;BME280;16219;42.864;23.360;2022-10-31T05:26:08;96474.28;;;8.55;100.00
29169;BME280;16219;42.864;23.360;2022-10-31T05:28:36;96475.06;;;8.55;100.00
29169;BME280;16219;42.864;23.360;2022-10-31T05:31:04;96475.53;;;8.57;100.00
29169;BME280;16219;42.864;23.360;2022-10-31T05:33:31;96474.22;;;8.60;100.00
29169;BME280;16219;42.864;23.360;2022-10-31T05:36:17;96473.97;;;8.56;100.00
29169;BME280;16219;42.864;23.360;2022-10-31T05:38:58;96478.53;;;8.50;100.00
29169;BME280;16219;42.864;23.360;2022-10-31T05:41:39;96484.72;;;8.60;100.00
29169;BME280;16219;42.864;23.360;2022-10-31T05:44:15;96483.72;;;8.56;100.00
29169;BME280;16219;42.864;23.360;2022-10-31T05:47:17;96487.34;;;8.60;100.00
29169;BME280;16219;42.864;23.360;2022-10-31T05:50:03;96498.03;;;8.68;100.00
29169;BME280;16219;42.864;23.360;2022-10-31T05:52:39;96500.91;;;8.72;100.00
29169;BME280;16219;42.864;23.360;2022-10-31T05:55:28;96491.88;;;8.78;100.00
29169;BME280;16219;42.864;23.360;2022-10-31T05:58:11;96501.56;;;8.83;100.00
29169;BME280;16219;42.864;23.360;2022-10-31T06:00:42;96498.59;;;8.89;100.00
29169;BME280;16219;42.864;23.360;2022-10-31T06:03:11;96504.56;;;8.95;100.00
29169;BME280;16219;42.864;23.360;2022-10-31T06:05:51;96511.56;;;9.05;100.00
29169;BME280;16219;42.864;23.360;2022-10-31T06:08:19;96519.03;;;9.16;100.00
29169;BME280;16219;42.864;23.360;2022-10-31T06:10:49;96513.44;;;9.23;100.00
29169;BME280;16219;42.864;23.360;2022-10-31T06:13:22;96508.88;;;9.29;100.00
29169;BME280;16219;42.864;23.360;2022-10-31T06:15:57;96510.59;;;9.38;100.00
29169;BME280;16219;42.864;23.360;2022-10-31T06:18:31;96517.31;;;9.49;100.00
29169;BME280;16219;42.864;23.360;2022-10-31T06:20:59;96515.09;;;9.57;100.00
29169;BME280;16219;42.864;23.360;2022-10-31T06:23:27;96511.88;;;9.60;100.00
29169;BME280;16219;42.864;23.360;2022-10-31T06:26:16;96520.72;;;9.69;100.00
29169;BME280;16219;42.864;23.360;2022-10-31T06:28:43;96519.34;;;9.71;100.00
29169;BME280;16219;42.864;23.360;2022-10-31T06:31:23;96518.63;;;9.85;100.00
29169;BME280;16219;42.864;23.360;2022-10-31T06:33:50;96523.47;;;9.96;100.00
29169;BME280;16219;42.864;23.360;2022-10-31T06:36:17;96528.50;;;10.12;100.00
29169;BME280;16219;42.864;23.360;2022-10-31T06:38:44;96524.13;;;10.21;100.00
29169;BME280;16219;42.864;23.360;2022-10-31T06:41:13;96524.06;;;10.26;100.00
29169;BME280;16219;42.864;23.360;2022-10-31T06:43:46;96522.72;;;10.29;100.00
29169;BME280;16219;42.864;23.360;2022-10-31T06:46:29;96533.50;;;10.46;100.00
29169;BME280;16219;42.864;23.360;2022-10-31T06:49:19;96527.44;;;10.45;100.00
29169;BME280;16219;42.864;23.360;2022-10-31T06:51:54;96514.06;;;10.56;100.00
29169;BME280;16219;42.864;23.360;2022-10-31T06:54:22;96531.53;;;10.65;100.00
29169;BME280;16219;42.864;23.360;2022-10-31T06:56:50;96533.03;;;10.71;100.00
29169;BME280;16219;42.864;23.360;2022-10-31T06:59:18;96538.78;;;10.87;100.00
29169;BME280;16219;42.864;23.360;2022-10-31T07:02:08;96531.78;;;10.96;100.00
29169;BME280;16219;42.864;23.360;2022-10-31T07:04:35;96535.25;;;11.19;100.00
29169;BME280;16219;42.864;23.360;2022-10-31T07:07:03;96526.47;;;11.24;100.00
29169;BME280;16219;42.864;23.360;2022-10-31T07:09:34;96533.28;;;11.39;100.00
29169;BME280;16219;42.864;23.360;2022-10-31T07:12:03;96533.25;;;11.52;100.00
29169;BME280;16219;42.864;23.360;2022-10-31T07:14:36;96522.94;;;11.65;100.00
29169;BME280;16219;42.864;23.360;2022-10-31T07:17:03;96526.31;;;11.79;100.00
29169;BME280;16219;42.864;23.360;2022-10-31T07:19:33;96521.31;;;11.91;100.00
29169;BME280;16219;42.864;23.360;2022-10-31T07:22:01;96527.63;;;12.04;100.00
29169;BME280;16219;42.864;23.360;2022-10-31T07:24:29;96526.00;;;12.17;100.00
29169;BME280;16219;42.864;23.360;2022-10-31T07:27:14;96527.78;;;12.30;100.00
29169;BME280;16219;42.864;23.360;2022-10-31T07:29:45;96519.59;;;12.40;100.00
29169;BME280;16219;42.864;23.360;2022-10-31T07:32:15;96514.41;;;12.58;100.00
29169;BME280;16219;42.864;23.360;2022-10-31T07:34:48;96515.38;;;12.70;100.00
29169;BME280;16219;42.864;23.360;2022-10-31T07:37:19;96519.47;;;12.85;100.00
29169;BME280;16219;42.864;23.360;2022-10-31T07:39:47;96516.53;;;12.95;100.00
29169;BME280;16219;42.864;23.360;2022-10-31T07:42:15;96515.97;;;13.07;100.00
29169;BME280;16219;42.864;23.360;2022-10-31T07:44:45;96512.38;;;13.12;100.00
29169;BME280;16219;42.864;23.360;2022-10-31T07:47:38;96516.03;;;13.33;100.00
29169;BME280;16219;42.864;23.360;2022-10-31T07:50:37;96525.59;;;13.52;100.00
29169;BME280;16219;42.864;23.360;2022-10-31T07:53:23;96517.81;;;13.64;100.00
29169;BME280;16219;42.864;23.360;2022-10-31T07:55:58;96512.00;;;13.79;100.00
29169;BME280;16219;42.864;23.360;2022-10-31T07:58:29;96513.72;;;13.92;100.00
29169;BME280;16219;42.864;23.360;2022-10-31T08:00:59;96519.66;;;14.07;100.00
29169;BME280;16219;42.864;23.360;2022-10-31T08:03:36;96517.28;;;14.22;100.00
29169;BME280;16219;42.864;23.360;2022-10-31T08:06:09;96511.28;;;14.43;100.00
29169;BME280;16219;42.864;23.360;2022-10-31T08:08:55;96514.56;;;14.57;100.00
29169;BME280;16219;42.864;23.360;2022-10-31T08:11:22;96504.38;;;14.68;100.00
29169;BME280;16219;42.864;23.360;2022-10-31T08:13:49;96513.56;;;14.79;100.00
29169;BME280;16219;42.864;23.360;2022-10-31T08:16:20;96506.59;;;14.95;100.00
29169;BME280;16219;42.864;23.360;2022-10-31T08:18:54;96499.63;;;15.12;100.00
29169;BME280;16219;42.864;23.360;2022-10-31T08:21:22;96496.13;;;15.20;100.00
29169;BME280;16219;42.864;23.360;2022-10-31T08:23:49;96497.59;;;15.38;100.00
29169;BME280;16219;42.864;23.360;2022-10-31T08:26:19;96495.13;;;15.54;100.00
29169;BME280;16219;42.864;23.360;2022-10-31T08:28:50;96498.53;;;15.63;100.00
29169;BME280;16219;42.864;23.360;2022-10-31T08:31:21;96488.28;;;15.74;100.00
29169;BME280;16219;42.864;23.360;2022-10-31T08:34:09;96490.66;;;15.88;100.00
29169;BME280;16219;42.864;23.360;2022-10-31T08:36:54;96489.28;;;16.03;100.00
29169;BME280;16219;42.864;23.360;2022-10-31T08:39:28;96482.13;;;16.15;100.00
29169;BME280;16219;42.864;23.360;2022-10-31T08:41:58;96490.78;;;16.24;100.00
29169;BME280;16219;42.864;23.360;2022-10-31T08:44:27;96482.47;;;16.38;100.00
29169;BME280;16219;42.864;23.360;2022-10-31T08:46:56;96479.16;;;16.41;100.00
29169;BME280;16219;42.864;23.360;2022-10-31T08:49:23;96488.72;;;16.55;100.00
29169;BME280;16219;42.864;23.360;2022-10-31T08:51:51;96482.09;;;16.73;100.00
29169;BME280;16219;42.864;23.360;2022-10-31T08:54:20;96474.34;;;16.80;100.00
29169;BME280;16219;42.864;23.360;2022-10-31T08:56:53;96483.34;;;16.88;100.00
29169;BME280;16219;42.864;23.360;2022-10-31T08:59:30;96485.66;;;17.02;100.00
29169;BME280;16219;42.864;23.360;2022-10-31T09:02:18;96486.44;;;17.14;100.00
29169;BME280;16219;42.864;23.360;2022-10-31T09:04:48;96482.22;;;17.26;100.00
29169;BME280;16219;42.864;23.360;2022-10-31T09:07:16;96476.84;;;17.38;100.00
29169;BME280;16219;42.864;23.360;2022-10-31T09:09:44;96477.91;;;17.49;100.00
29169;BME280;16219;42.864;23.360;2022-10-31T09:12:11;96479.88;;;17.64;100.00
29169;BME280;16219;42.864;23.360;2022-10-31T09:14:57;96474.88;;;17.75;100.00
29169;BME280;16219;42.864;23.360;2022-10-31T09:17:54;96479.72;;;17.85;100.00
29169;BME280;16219;42.864;23.360;2022-10-31T09:20:49;96469.09;;;18.01;100.00
29169;BME280;16219;42.864;23.360;2022-10-31T09:23:18;96477.69;;;18.22;100.00
29169;BME280;16219;42.864;23.360;2022-10-31T09:25:46;96480.50;;;18.30;100.00
29169;BME280;16219;42.864;23.360;2022-10-31T09:28:29;96475.88;;;18.42;100.00
29169;BME280;16219;42.864;23.360;2022-10-31T09:31:02;96476.91;;;18.54;99.43
29169;BME280;16219;42.864;23.360;2022-10-31T09:33:49;96475.53;;;18.60;100.00
29169;BME280;16219;42.864;23.360;2022-10-31T09:36:35;96478.81;;;18.69;100.00
29169;BME280;16219;42.864;23.360;2022-10-31T09:39:03;96474.28;;;18.69;100.00
29169;BME280;16219;42.864;23.360;2022-10-31T09:41:44;96472.81;;;18.72;98.21
29169;BME280;16219;42.864;23.360;2022-10-31T09:44:21;96471.66;;;18.73;98.70
29169;BME280;16219;42.864;23.360;2022-10-31T09:46:57;96463.31;;;18.90;96.89
29169;BME280;16219;42.864;23.360;2022-10-31T09:49:39;96454.47;;;19.06;93.39
29169;BME280;16219;42.864;23.360;2022-10-31T09:52:18;96450.66;;;19.07;98.01
29169;BME280;16219;42.864;23.360;2022-10-31T09:54:51;96447.47;;;19.17;99.29
29169;BME280;16219;42.864;23.360;2022-10-31T09:57:24;96444.41;;;19.34;96.24
29169;BME280;16219;42.864;23.360;2022-10-31T09:59:53;96446.22;;;19.49;95.66
29169;BME280;16219;42.864;23.360;2022-10-31T10:02:25;96442.81;;;19.68;87.36
29169;BME280;16219;42.864;23.360;2022-10-31T10:04:58;96440.91;;;19.69;91.50
29169;BME280;16219;42.864;23.360;2022-10-31T10:07:35;96431.47;;;19.75;89.96
29169;BME280;16219;42.864;23.360;2022-10-31T10:10:44;96434.75;;;19.88;92.98
29169;BME280;16219;42.864;23.360;2022-10-31T10:13:57;96421.94;;;19.97;91.63
29169;BME280;16219;42.864;23.360;2022-10-31T10:16:43;96428.31;;;20.12;86.38
29169;BME280;16219;42.864;23.360;2022-10-31T10:19:24;96409.25;;;20.17;83.41
29169;BME280;16219;42.864;23.360;2022-10-31T10:22:01;96429.34;;;20.27;83.74
29169;BME280;16219;42.864;23.360;2022-10-31T10:24:38;96414.13;;;20.34;82.59
29169;BME280;16219;42.864;23.360;2022-10-31T10:27:16;96409.50;;;20.31;86.20
29169;BME280;16219;42.864;23.360;2022-10-31T10:29:49;96412.59;;;20.33;82.60
29169;BME280;16219;42.864;23.360;2022-10-31T10:32:21;96412.00;;;20.43;84.02
29169;BME280;16219;42.864;23.360;2022-10-31T10:34:51;96406.78;;;20.51;85.31
29169;BME280;16219;42.864;23.360;2022-10-31T10:37:29;96407.84;;;20.69;81.57
29169;BME280;16219;42.864;23.360;2022-10-31T10:40:05;96401.41;;;20.74;78.74
29169;BME280;16219;42.864;23.360;2022-10-31T10:42:33;96390.19;;;20.68;81.46
29169;BME280;16219;42.864;23.360;2022-10-31T10:45:19;96398.03;;;20.80;80.84
29169;BME280;16219;42.864;23.360;2022-10-31T10:48:13;96397.31;;;20.83;83.19
29169;BME280;16219;42.864;23.360;2022-10-31T10:50:46;96394.81;;;20.97;78.89
29169;BME280;16219;42.864;23.360;2022-10-31T10:53:35;96389.56;;;21.05;81.47
29169;BME280;16219;42.864;23.360;2022-10-31T10:56:18;96395.38;;;21.10;79.55
29169;BME280;16219;42.864;23.360;2022-10-31T10:58:48;96381.66;;;21.15;76.62
29169;BME280;16219;42.864;23.360;2022-10-31T11:01:15;96384.47;;;21.26;73.29
29169;BME280;16219;42.864;23.360;2022-10-31T11:03:42;96386.75;;;21.24;78.49
29169;BME280;16219;42.864;23.360;2022-10-31T11:06:17;96379.09;;;21.26;74.72
29169;BME280;16219;42.864;23.360;2022-10-31T11:08:48;96368.94;;;21.39;72.14
29169;BME280;16219;42.864;23.360;2022-10-31T11:11:24;96376.75;;;21.51;74.14
29169;BME280;16219;42.864;23.360;2022-10-31T11:13:58;96375.63;;;21.56;73.76
29169;BME280;16219;42.864;23.360;2022-10-31T11:16:32;96368.31;;;21.53;74.26
29169;BME280;16219;42.864;23.360;2022-10-31T11:19:08;96363.34;;;21.55;72.96
29169;BME280;16219;42.864;23.360;2022-10-31T11:21:36;96356.13;;;21.59;72.21
29169;BME280;16219;42.864;23.360;2022-10-31T11:24:13;96358.81;;;21.59;71.21
29169;BME280;16219;42.864;23.360;2022-10-31T11:26:42;96339.66;;;21.64;73.44
29169;BME280;16219;42.864;23.360;2022-10-31T11:29:15;96328.59;;;21.69;69.71
29169;BME280;16219;42.864;23.360;2022-10-31T11:31:43;96344.81;;;21.80;74.74
29169;BME280;16219;42.864;23.360;2022-10-31T11:34:26;96334.13;;;21.87;71.21
29169;BME280;16219;42.864;23.360;2022-10-31T11:37:00;96329.56;;;21.91;69.34
29169;BME280;16219;42.864;23.360;2022-10-31T11:39:30;96326.56;;;22.00;69.28
29169;BME280;16219;42.864;23.360;2022-10-31T11:42:00;96327.41;;;22.07;67.12
29169;BME280;16219;42.864;23.360;2022-10-31T11:44:29;96319.44;;;22.14;67.47
29169;BME280;16219;42.864;23.360;2022-10-31T11:46:59;96322.16;;;22.18;65.91
29169;BME280;16219;42.864;23.360;2022-10-31T11:49:30;96310.66;;;22.25;60.92
29169;BME280;16219;42.864;23.360;2022-10-31T11:52:02;96312.22;;;22.29;62.75
29169;BME280;16219;42.864;23.360;2022-10-31T11:54:41;96312.28;;;22.36;62.53
29169;BME280;16219;42.864;23.360;2022-10-31T11:57:22;96311.50;;;22.32;63.10
29169;BME280;16219;42.864;23.360;2022-10-31T11:59:51;96311.13;;;22.30;57.79
29169;BME280;16219;42.864;23.360;2022-10-31T12:02:19;96301.53;;;22.36;53.89
29169;BME280;16219;42.864;23.360;2022-10-31T12:04:52;96303.84;;;22.38;56.93
29169;BME280;16219;42.864;23.360;2022-10-31T12:07:23;96309.19;;;22.34;55.43
29169;BME280;16219;42.864;23.360;2022-10-31T12:09:52;96306.56;;;22.41;54.59
29169;BME280;16219;42.864;23.360;2022-10-31T12:12:42;96308.94;;;22.54;57.79
29169;BME280;16219;42.864;23.360;2022-10-31T12:15:33;96308.19;;;22.53;56.34
29169;BME280;16219;42.864;23.360;2022-10-31T12:18:27;96301.66;;;22.54;56.66
29169;BME280;16219;42.864;23.360;2022-10-31T12:21:08;96289.50;;;22.78;52.55
29169;BME280;16219;42.864;23.360;2022-10-31T12:23:47;96295.34;;;22.91;52.69
29169;BME280;16219;42.864;23.360;2022-10-31T12:26:24;96294.91;;;22.89;52.33
29169;BME280;16219;42.864;23.360;2022-10-31T12:29:18;96300.75;;;22.94;50.12
29169;BME280;16219;42.864;23.360;2022-10-31T12:31:58;96290.78;;;22.99;49.70
29169;BME280;16219;42.864;23.360;2022-10-31T12:34:51;96299.56;;;22.92;49.71
29169;BME280;16219;42.864;23.360;2022-10-31T12:37:31;96291.44;;;22.88;48.41
29169;BME280;16219;42.864;23.360;2022-10-31T12:40:17;96296.50;;;22.97;49.35
29169;BME280;16219;42.864;23.360;2022-10-31T12:43:02;96297.28;;;22.98;48.70
29169;BME280;16219;42.864;23.360;2022-10-31T12:45:41;96289.63;;;23.00;49.09
29169;BME280;16219;42.864;23.360;2022-10-31T12:51:11;96283.75;;;22.83;47.53
29169;BME280;16219;42.864;23.360;2022-10-31T12:53:55;96301.88;;;22.90;48.38
29169;BME280;16219;42.864;23.360;2022-10-31T12:56:35;96306.09;;;22.91;48.05
29169;BME280;16219;42.864;23.360;2022-10-31T12:59:12;96295.28;;;22.84;49.27
29169;BME280;16219;42.864;23.360;2022-10-31T13:01:50;96299.50;;;22.81;47.89
29169;BME280;16219;42.864;23.360;2022-10-31T13:04:28;96305.66;;;22.82;47.93
29169;BME280;16219;42.864;23.360;2022-10-31T13:07:03;96306.00;;;22.80;48.63
29169;BME280;16219;42.864;23.360;2022-10-31T13:09:36;96306.44;;;22.89;48.47
29169;BME280;16219;42.864;23.360;2022-10-31T13:12:09;96306.41;;;22.82;48.31
29169;BME280;16219;42.864;23.360;2022-10-31T13:14:41;96306.41;;;22.79;48.08
29169;BME280;16219;42.864;23.360;2022-10-31T13:17:16;96311.00;;;22.78;48.03
29169;BME280;16219;42.864;23.360;2022-10-31T13:19:49;96312.56;;;22.83;47.39
29169;BME280;16219;42.864;23.360;2022-10-31T13:22:21;96308.34;;;22.82;47.71
29169;BME280;16219;42.864;23.360;2022-10-31T13:24:54;96310.25;;;22.78;47.35